sensor_id;sensor_type;location;lat;lon;timestamp;pressure;altitude;pressure_sealevel;temperature;humidity
84781;BME280;75011;50.086;19.886;2023-12-20T00:00:39;98327.19;;;5.66;49.79
84781;BME280;75011;50.086;19.886;2023-12-20T00:03:40;98310.44;;;5.54;49.78
84781;BME280;75011;50.086;19.886;2023-12-20T00:06:40;98328.56;;;5.68;49.59
84781;BME280;75011;50.086;19.886;2023-12-20T00:09:42;98320.03;;;5.55;50.14
84781;BME280;75011;50.086;19.886;2023-12-20T00:12:42;98325.34;;;5.66;50.02
84781;BME280;75011;50.086;19.886;2023-12-20T00:15:43;98318.84;;;5.62;50.33
84781;BME280;75011;50.086;19.886;2023-12-20T00:18:43;98314.72;;;5.55;50.11
84781;BME280;75011;50.086;19.886;2023-12-20T00:21:44;98280.44;;;5.47;50.40
84781;BME280;75011;50.086;19.886;2023-12-20T00:24:46;98283.91;;;5.47;50.67
84781;BME280;75011;50.086;19.886;2023-12-20T00:27:46;98308.06;;;5.69;50.56
84781;BME280;75011;50.086;19.886;2023-12-20T00:30:47;98303.88;;;5.73;50.34
84781;BME280;75011;50.086;19.886;2023-12-20T00:33:47;98294.94;;;5.79;50.00
84781;BME280;75011;50.086;19.886;2023-12-20T00:36:48;98293.63;;;5.93;49.54
84781;BME280;75011;50.086;19.886;2023-12-20T00:39:50;98256.78;;;5.90;49.58
84781;BME280;75011;50.086;19.886;2023-12-20T00:42:50;98271.28;;;6.27;48.75
84781;BME280;75011;50.086;19.886;2023-12-20T00:45:51;98281.16;;;6.44;48.50
84781;BME280;75011;50.086;19.886;2023-12-20T00:48:51;98262.22;;;6.45;47.01
84781;BME280;75011;50.086;19.886;2023-12-20T00:51:52;98229.09;;;6.41;46.22
84781;BME280;75011;50.086;19.886;2023-12-20T00:54:54;98224.38;;;6.48;46.41
84781;BME280;75011;50.086;19.886;2023-12-20T00:57:54;98284.13;;;6.80;46.09
84781;BME280;75011;50.086;19.886;2023-12-20T01:00:55;98257.69;;;6.62;46.17
84781;BME280;75011;50.086;19.886;2023-12-20T01:03:55;98284.84;;;6.76;46.29
84781;BME280;75011;50.086;19.886;2023-12-20T01:06:56;98269.09;;;6.74;46.09
84781;BME280;75011;50.086;19.886;2023-12-20T01:09:57;98236.75;;;6.38;45.97
84781;BME280;75011;50.086;19.886;2023-12-20T01:12:58;98278.56;;;6.65;45.80
84781;BME280;75011;50.086;19.886;2023-12-20T01:15:58;98250.09;;;6.54;46.14
84781;BME280;75011;50.086;19.886;2023-12-20T01:18:59;98212.75;;;6.38;45.58
84781;BME280;75011;50.086;19.886;2023-12-20T01:21:59;98231.91;;;6.51;46.13
84781;BME280;75011;50.086;19.886;2023-12-20T01:25:01;98250.97;;;6.60;45.83
84781;BME280;75011;50.086;19.886;2023-12-20T01:28:02;98249.44;;;6.47;46.25
84781;BME280;75011;50.086;19.886;2023-12-20T01:31:03;98241.69;;;6.46;45.63
84781;BME280;75011;50.086;19.886;2023-12-20T01:34:03;98230.47;;;6.44;46.32
84781;BME280;75011;50.086;19.886;2023-12-20T01:37:04;98220.28;;;6.41;45.73
84781;BME280;75011;50.086;19.886;2023-12-20T01:40:06;98203.38;;;6.35;45.93
84781;BME280;75011;50.086;19.886;2023-12-20T01:43:08;98202.41;;;6.24;46.55
84781;BME280;75011;50.086;19.886;2023-12-20T01:46:09;98202.59;;;6.18;46.78
84781;BME280;75011;50.086;19.886;2023-12-20T01:49:10;98191.16;;;6.06;46.93
84781;BME280;75011;50.086;19.886;2023-12-20T01:52:11;98173.81;;;5.87;46.74
84781;BME280;75011;50.086;19.886;2023-12-20T01:55:13;98169.03;;;5.89;46.91
84781;BME280;75011;50.086;19.886;2023-12-20T01:58:15;98175.19;;;5.89;47.39
84781;BME280;75011;50.086;19.886;2023-12-20T02:01:16;98185.28;;;6.04;46.78
84781;BME280;75011;50.086;19.886;2023-12-20T02:04:16;98166.44;;;5.94;47.06
84781;BME280;75011;50.086;19.886;2023-12-20T02:07:18;98160.34;;;5.82;46.74
84781;BME280;75011;50.086;19.886;2023-12-20T02:10:21;98153.97;;;5.83;46.38
84781;BME280;75011;50.086;19.886;2023-12-20T02:13:21;98178.19;;;5.93;46.85
84781;BME280;75011;50.086;19.886;2023-12-20T02:16:22;98179.13;;;5.87;46.48
84781;BME280;75011;50.086;19.886;2023-12-20T02:19:22;98136.84;;;5.62;46.77
84781;BME280;75011;50.086;19.886;2023-12-20T02:22:24;98173.03;;;5.75;47.34
84781;BME280;75011;50.086;19.886;2023-12-20T02:25:25;98142.41;;;5.60;47.05
84781;BME280;75011;50.086;19.886;2023-12-20T02:28:25;98139.66;;;5.55;47.11
84781;BME280;75011;50.086;19.886;2023-12-20T02:31:26;98157.09;;;5.63;46.95
84781;BME280;75011;50.086;19.886;2023-12-20T02:34:27;98147.66;;;5.55;47.32
84781;BME280;75011;50.086;19.886;2023-12-20T02:37:29;98156.63;;;5.66;47.33
84781;BME280;75011;50.086;19.886;2023-12-20T02:40:29;98150.00;;;5.68;47.51
84781;BME280;75011;50.086;19.886;2023-12-20T02:43:29;98129.06;;;5.60;46.85
84781;BME280;75011;50.086;19.886;2023-12-20T02:46:30;98162.50;;;5.68;47.08
84781;BME280;75011;50.086;19.886;2023-12-20T02:49:30;98164.16;;;5.69;47.09
84781;BME280;75011;50.086;19.886;2023-12-20T02:52:32;98150.34;;;5.72;46.68
84781;BME280;75011;50.086;19.886;2023-12-20T02:55:33;98162.06;;;5.88;46.19
84781;BME280;75011;50.086;19.886;2023-12-20T02:58:33;98168.22;;;5.88;46.37
84781;BME280;75011;50.086;19.886;2023-12-20T03:01:34;98161.88;;;5.78;46.56
84781;BME280;75011;50.086;19.886;2023-12-20T03:04:35;98151.28;;;5.66;46.44
84781;BME280;75011;50.086;19.886;2023-12-20T03:07:37;98177.00;;;5.72;46.74
84781;BME280;75011;50.086;19.886;2023-12-20T03:10:38;98168.91;;;5.67;47.00
84781;BME280;75011;50.086;19.886;2023-12-20T03:13:38;98169.88;;;5.78;47.15
84781;BME280;75011;50.086;19.886;2023-12-20T03:16:39;98141.19;;;5.68;46.29
84781;BME280;75011;50.086;19.886;2023-12-20T03:19:39;98147.16;;;5.75;46.76
84781;BME280;75011;50.086;19.886;2023-12-20T03:22:41;98132.91;;;5.64;46.72
84781;BME280;75011;50.086;19.886;2023-12-20T03:25:47;98128.34;;;5.65;47.06
84781;BME280;75011;50.086;19.886;2023-12-20T03:28:48;98146.69;;;5.78;46.72
84781;BME280;75011;50.086;19.886;2023-12-20T03:31:48;98130.06;;;5.71;46.92
84781;BME280;75011;50.086;19.886;2023-12-20T03:34:49;98160.00;;;5.90;47.19
84781;BME280;75011;50.086;19.886;2023-12-20T03:37:51;98160.06;;;5.95;46.95
84781;BME280;75011;50.086;19.886;2023-12-20T03:40:52;98111.56;;;5.64;46.84
84781;BME280;75011;50.086;19.886;2023-12-20T03:43:52;98150.03;;;6.02;46.60
84781;BME280;75011;50.086;19.886;2023-12-20T03:46:53;98152.06;;;6.11;45.92
84781;BME280;75011;50.086;19.886;2023-12-20T03:49:53;98163.13;;;6.20;45.59
84781;BME280;75011;50.086;19.886;2023-12-20T03:52:55;98148.41;;;6.17;45.80
84781;BME280;75011;50.086;19.886;2023-12-20T03:55:55;98126.94;;;6.07;45.47
84781;BME280;75011;50.086;19.886;2023-12-20T03:58:56;98140.97;;;6.19;45.41
84781;BME280;75011;50.086;19.886;2023-12-20T04:01:56;98130.97;;;6.10;45.52
84781;BME280;75011;50.086;19.886;2023-12-20T04:04:57;98082.69;;;5.90;45.69
84781;BME280;75011;50.086;19.886;2023-12-20T04:07:59;98098.34;;;5.86;46.10
84781;BME280;75011;50.086;19.886;2023-12-20T04:11:00;98120.06;;;5.95;46.13
84781;BME280;75011;50.086;19.886;2023-12-20T04:14:00;98116.94;;;5.98;45.93
84781;BME280;75011;50.086;19.886;2023-12-20T04:17:01;98143.81;;;6.13;45.97
84781;BME280;75011;50.086;19.886;2023-12-20T04:20:01;98129.34;;;6.09;45.97
84781;BME280;75011;50.086;19.886;2023-12-20T04:23:03;98116.19;;;6.02;45.93
84781;BME280;75011;50.086;19.886;2023-12-20T04:26:04;98147.44;;;6.23;45.85
84781;BME280;75011;50.086;19.886;2023-12-20T04:29:04;98131.03;;;6.15;45.94
84781;BME280;75011;50.086;19.886;2023-12-20T04:32:06;98151.63;;;6.36;46.34
84781;BME280;75011;50.086;19.886;2023-12-20T04:35:06;98135.03;;;6.34;45.78
84781;BME280;75011;50.086;19.886;2023-12-20T04:38:08;98166.97;;;6.46;45.91
84781;BME280;75011;50.086;19.886;2023-12-20T04:41:09;98138.44;;;6.29;46.66
84781;BME280;75011;50.086;19.886;2023-12-20T04:44:09;98142.59;;;6.20;47.09
84781;BME280;75011;50.086;19.886;2023-12-20T04:47:10;98151.63;;;6.36;48.06
84781;BME280;75011;50.086;19.886;2023-12-20T04:50:10;98125.94;;;6.13;48.65
84781;BME280;75011;50.086;19.886;2023-12-20T04:53:12;98157.69;;;6.31;49.41
84781;BME280;75011;50.086;19.886;2023-12-20T04:56:13;98149.06;;;6.24;50.58
84781;BME280;75011;50.086;19.886;2023-12-20T04:59:13;98173.47;;;6.33;51.49
84781;BME280;75011;50.086;19.886;2023-12-20T05:02:14;98140.50;;;6.06;52.70
84781;BME280;75011;50.086;19.886;2023-12-20T05:05:14;98163.94;;;6.04;54.74
84781;BME280;75011;50.086;19.886;2023-12-20T05:08:16;98158.44;;;5.94;56.39
84781;BME280;75011;50.086;19.886;2023-12-20T05:11:17;98147.69;;;5.72;58.88
84781;BME280;75011;50.086;19.886;2023-12-20T05:14:17;98123.50;;;5.45;59.29
84781;BME280;75011;50.086;19.886;2023-12-20T05:17:18;98133.81;;;5.42;60.56
84781;BME280;75011;50.086;19.886;2023-12-20T05:20:18;98141.88;;;5.30;63.09
84781;BME280;75011;50.086;19.886;2023-12-20T05:23:20;98114.41;;;5.13;64.77
84781;BME280;75011;50.086;19.886;2023-12-20T05:26:20;98164.94;;;5.25;66.24
84781;BME280;75011;50.086;19.886;2023-12-20T05:29:21;98159.75;;;5.18;67.20
84781;BME280;75011;50.086;19.886;2023-12-20T05:32:22;98161.88;;;5.16;67.83
84781;BME280;75011;50.086;19.886;2023-12-20T05:35:22;98148.22;;;5.01;68.86
84781;BME280;75011;50.086;19.886;2023-12-20T05:38:24;98156.00;;;5.02;69.61
84781;BME280;75011;50.086;19.886;2023-12-20T05:41:25;98127.97;;;4.72;70.03
84781;BME280;75011;50.086;19.886;2023-12-20T05:44:25;98126.69;;;4.63;70.48
84781;BME280;75011;50.086;19.886;2023-12-20T05:47:25;98167.75;;;4.78;71.28
84781;BME280;75011;50.086;19.886;2023-12-20T05:50:26;98153.41;;;4.68;71.80
84781;BME280;75011;50.086;19.886;2023-12-20T05:53:28;98148.22;;;4.61;72.76
84781;BME280;75011;50.086;19.886;2023-12-20T05:56:28;98152.16;;;4.59;73.00
84781;BME280;75011;50.086;19.886;2023-12-20T05:59:29;98159.34;;;4.58;73.00
84781;BME280;75011;50.086;19.886;2023-12-20T06:02:29;98154.16;;;4.52;73.53
84781;BME280;75011;50.086;19.886;2023-12-20T06:05:30;98151.38;;;4.47;73.90
84781;BME280;75011;50.086;19.886;2023-12-20T06:08:32;98157.63;;;4.40;74.08
84781;BME280;75011;50.086;19.886;2023-12-20T06:11:32;98181.22;;;4.49;74.48
84781;BME280;75011;50.086;19.886;2023-12-20T06:14:33;98178.56;;;4.49;74.70
84781;BME280;75011;50.086;19.886;2023-12-20T06:17:33;98185.97;;;4.47;75.95
84781;BME280;75011;50.086;19.886;2023-12-20T06:20:34;98164.81;;;4.28;75.24
84781;BME280;75011;50.086;19.886;2023-12-20T06:23:35;98173.00;;;4.38;75.42
84781;BME280;75011;50.086;19.886;2023-12-20T06:26:36;98187.44;;;4.42;75.76
84781;BME280;75011;50.086;19.886;2023-12-20T06:29:36;98183.41;;;4.40;75.89
84781;BME280;75011;50.086;19.886;2023-12-20T06:32:37;98159.03;;;4.20;76.32
84781;BME280;75011;50.086;19.886;2023-12-20T06:35:37;98129.78;;;3.97;76.95
84781;BME280;75011;50.086;19.886;2023-12-20T06:38:39;98192.78;;;4.19;77.01
84781;BME280;75011;50.086;19.886;2023-12-20T06:41:40;98194.84;;;4.17;77.51
84781;BME280;75011;50.086;19.886;2023-12-20T06:44:40;98143.41;;;3.89;77.59
84781;BME280;75011;50.086;19.886;2023-12-20T06:47:41;98183.06;;;4.13;78.01
84781;BME280;75011;50.086;19.886;2023-12-20T06:50:41;98129.22;;;3.83;79.08
84781;BME280;75011;50.086;19.886;2023-12-20T06:53:43;98152.75;;;3.91;80.00
84781;BME280;75011;50.086;19.886;2023-12-20T06:56:44;98170.69;;;3.96;80.08
84781;BME280;75011;50.086;19.886;2023-12-20T06:59:52;98127.34;;;3.72;79.75
84781;BME280;75011;50.086;19.886;2023-12-20T07:02:53;98192.41;;;4.04;80.23
84781;BME280;75011;50.086;19.886;2023-12-20T07:05:53;98161.22;;;3.88;80.53
84781;BME280;75011;50.086;19.886;2023-12-20T07:08:55;98178.31;;;4.04;80.94
84781;BME280;75011;50.086;19.886;2023-12-20T07:11:56;98166.16;;;3.96;80.94
84781;BME280;75011;50.086;19.886;2023-12-20T07:14:56;98152.53;;;3.93;81.45
84781;BME280;75011;50.086;19.886;2023-12-20T07:17:57;98197.59;;;3.99;81.54
84781;BME280;75011;50.086;19.886;2023-12-20T07:20:57;98188.03;;;3.98;81.81
84781;BME280;75011;50.086;19.886;2023-12-20T07:23:59;98171.00;;;3.76;81.76
84781;BME280;75011;50.086;19.886;2023-12-20T07:27:00;98183.25;;;3.89;82.20
84781;BME280;75011;50.086;19.886;2023-12-20T07:30:01;98206.50;;;3.93;82.70
84781;BME280;75011;50.086;19.886;2023-12-20T07:33:01;98183.50;;;3.87;82.68
84781;BME280;75011;50.086;19.886;2023-12-20T07:36:02;98186.28;;;3.92;82.89
84781;BME280;75011;50.086;19.886;2023-12-20T07:39:04;98223.38;;;3.99;82.43
84781;BME280;75011;50.086;19.886;2023-12-20T07:42:05;98194.38;;;3.97;83.05
84781;BME280;75011;50.086;19.886;2023-12-20T07:45:06;98190.69;;;3.98;83.03
84781;BME280;75011;50.086;19.886;2023-12-20T07:48:49;98183.63;;;3.80;82.84
84781;BME280;75011;50.086;19.886;2023-12-20T08:05:00;98175.53;;;3.46;83.90
84781;BME280;75011;50.086;19.886;2023-12-20T09:06:45;98199.22;;;9.31;79.13
84781;BME280;75011;50.086;19.886;2023-12-20T09:09:46;98200.25;;;11.22;71.63
84781;BME280;75011;50.086;19.886;2023-12-20T09:12:46;98212.50;;;12.41;69.18
84781;BME280;75011;50.086;19.886;2023-12-20T09:15:47;98201.00;;;13.35;67.68
84781;BME280;75011;50.086;19.886;2023-12-20T09:18:47;98197.97;;;14.16;66.97
84781;BME280;75011;50.086;19.886;2023-12-20T09:21:49;98181.66;;;14.86;65.01
84781;BME280;75011;50.086;19.886;2023-12-20T09:24:49;98177.44;;;15.34;61.66
84781;BME280;75011;50.086;19.886;2023-12-20T09:27:50;98195.41;;;15.57;60.05
84781;BME280;75011;50.086;19.886;2023-12-20T09:30:50;98186.09;;;15.86;57.17
84781;BME280;75011;50.086;19.886;2023-12-20T09:33:51;98192.31;;;16.22;54.26
84781;BME280;75011;50.086;19.886;2023-12-20T09:36:53;98191.97;;;16.46;51.35
84781;BME280;75011;50.086;19.886;2023-12-20T09:39:53;98174.69;;;16.55;50.04
84781;BME280;75011;50.086;19.886;2023-12-20T09:42:57;98177.34;;;16.77;48.08
84781;BME280;75011;50.086;19.886;2023-12-20T09:46:00;98171.31;;;16.89;46.49
84781;BME280;75011;50.086;19.886;2023-12-20T09:49:04;98165.94;;;16.97;45.65
84781;BME280;75011;50.086;19.886;2023-12-20T09:52:08;98167.19;;;16.91;45.06
84781;BME280;75011;50.086;19.886;2023-12-20T09:55:09;98176.13;;;16.83;44.42
84781;BME280;75011;50.086;19.886;2023-12-20T09:58:10;98148.06;;;16.96;43.78
84781;BME280;75011;50.086;19.886;2023-12-20T10:01:11;98161.38;;;17.07;43.06
84781;BME280;75011;50.086;19.886;2023-12-20T10:04:12;98156.56;;;17.12;42.56
84781;BME280;75011;50.086;19.886;2023-12-20T10:07:15;98144.47;;;17.18;41.97
84781;BME280;75011;50.086;19.886;2023-12-20T10:10:15;98147.03;;;17.23;41.48
84781;BME280;75011;50.086;19.886;2023-12-20T10:13:16;98147.22;;;17.27;41.09
84781;BME280;75011;50.086;19.886;2023-12-20T10:16:16;98141.44;;;17.28;40.70
84781;BME280;75011;50.086;19.886;2023-12-20T10:19:17;98139.06;;;17.35;40.35
84781;BME280;75011;50.086;19.886;2023-12-20T10:22:19;98157.94;;;17.40;39.63
84781;BME280;75011;50.086;19.886;2023-12-20T10:25:20;98142.59;;;17.36;40.03
84781;BME280;75011;50.086;19.886;2023-12-20T10:28:20;98155.53;;;17.39;39.78
84781;BME280;75011;50.086;19.886;2023-12-20T10:31:28;98149.13;;;17.26;39.43
84781;BME280;75011;50.086;19.886;2023-12-20T10:34:28;98140.63;;;17.19;39.79
84781;BME280;75011;50.086;19.886;2023-12-20T10:37:30;98134.34;;;17.02;39.95
84781;BME280;75011;50.086;19.886;2023-12-20T10:40:31;98137.94;;;16.80;40.08
84781;BME280;75011;50.086;19.886;2023-12-20T10:43:34;98150.34;;;16.72;40.25
84781;BME280;75011;50.086;19.886;2023-12-20T10:46:35;98137.25;;;16.66;40.30
84781;BME280;75011;50.086;19.886;2023-12-20T10:49:36;98128.31;;;16.65;40.13
84781;BME280;75011;50.086;19.886;2023-12-20T10:52:40;98134.09;;;16.50;40.36
84781;BME280;75011;50.086;19.886;2023-12-20T10:55:42;98128.66;;;16.72;39.95
84781;BME280;75011;50.086;19.886;2023-12-20T10:58:43;98129.41;;;17.04;39.10
84781;BME280;75011;50.086;19.886;2023-12-20T11:01:45;98122.09;;;17.30;38.90
84781;BME280;75011;50.086;19.886;2023-12-20T11:04:51;98137.84;;;17.50;38.50
84781;BME280;75011;50.086;19.886;2023-12-20T11:07:58;98124.75;;;17.69;38.51
84781;BME280;75011;50.086;19.886;2023-12-20T11:11:04;98127.47;;;17.86;38.18
84781;BME280;75011;50.086;19.886;2023-12-20T11:14:07;98136.59;;;17.99;38.06
84781;BME280;75011;50.086;19.886;2023-12-20T11:17:09;98130.03;;;18.08;37.55
84781;BME280;75011;50.086;19.886;2023-12-20T11:20:10;98119.94;;;18.17;37.81
84781;BME280;75011;50.086;19.886;2023-12-20T11:23:12;98131.63;;;18.27;37.82
84781;BME280;75011;50.086;19.886;2023-12-20T11:26:15;98124.06;;;18.32;37.83
84781;BME280;75011;50.086;19.886;2023-12-20T11:29:32;98121.16;;;18.37;37.42
84781;BME280;75011;50.086;19.886;2023-12-20T11:32:34;98127.25;;;18.43;37.82
84781;BME280;75011;50.086;19.886;2023-12-20T11:35:35;98139.59;;;18.49;37.55
84781;BME280;75011;50.086;19.886;2023-12-20T11:38:38;98125.00;;;18.53;37.47
84781;BME280;75011;50.086;19.886;2023-12-20T11:41:39;98119.72;;;18.57;37.27
84781;BME280;75011;50.086;19.886;2023-12-20T11:44:39;98127.72;;;18.62;37.04
84781;BME280;75011;50.086;19.886;2023-12-20T11:47:46;98120.34;;;18.62;37.16
84781;BME280;75011;50.086;19.886;2023-12-20T11:50:47;98121.00;;;18.59;37.69
84781;BME280;75011;50.086;19.886;2023-12-20T11:53:52;98118.56;;;18.66;37.71
84781;BME280;75011;50.086;19.886;2023-12-20T11:56:53;98117.91;;;18.69;37.14
84781;BME280;75011;50.086;19.886;2023-12-20T11:59:53;98110.69;;;18.73;37.41
84781;BME280;75011;50.086;19.886;2023-12-20T12:02:58;98108.78;;;18.74;37.61
84781;BME280;75011;50.086;19.886;2023-12-20T12:05:58;98099.00;;;18.73;36.89
84781;BME280;75011;50.086;19.886;2023-12-20T12:09:00;98105.25;;;18.73;37.15
84781;BME280;75011;50.086;19.886;2023-12-20T12:12:01;98110.50;;;18.78;36.87
84781;BME280;75011;50.086;19.886;2023-12-20T12:15:01;98102.50;;;18.82;36.86
84781;BME280;75011;50.086;19.886;2023-12-20T12:18:02;98103.13;;;18.88;36.74
84781;BME280;75011;50.086;19.886;2023-12-20T12:21:03;98098.13;;;18.90;36.57
84781;BME280;75011;50.086;19.886;2023-12-20T12:24:07;98099.41;;;18.92;36.37
84781;BME280;75011;50.086;19.886;2023-12-20T12:27:08;98091.69;;;18.94;36.34
84781;BME280;75011;50.086;19.886;2023-12-20T12:30:10;98100.66;;;18.95;36.41
84781;BME280;75011;50.086;19.886;2023-12-20T12:33:11;98085.25;;;18.99;36.07
84781;BME280;75011;50.086;19.886;2023-12-20T12:36:12;98104.31;;;18.99;35.97
84781;BME280;75011;50.086;19.886;2023-12-20T12:39:14;98100.34;;;18.96;36.15
84781;BME280;75011;50.086;19.886;2023-12-20T12:42:15;98093.31;;;18.95;36.14
84781;BME280;75011;50.086;19.886;2023-12-20T12:45:16;98109.31;;;18.97;36.24
84781;BME280;75011;50.086;19.886;2023-12-20T12:48:16;98101.47;;;18.95;36.19
84781;BME280;75011;50.086;19.886;2023-12-20T12:51:17;98103.06;;;18.96;36.16
84781;BME280;75011;50.086;19.886;2023-12-20T12:54:19;98095.69;;;18.97;35.64
84781;BME280;75011;50.086;19.886;2023-12-20T12:57:19;98107.38;;;18.97;36.07
84781;BME280;75011;50.086;19.886;2023-12-20T13:00:21;98102.59;;;18.94;35.58
84781;BME280;75011;50.086;19.886;2023-12-20T13:03:21;98099.22;;;18.97;36.12
84781;BME280;75011;50.086;19.886;2023-12-20T13:06:22;98086.72;;;18.96;36.02
84781;BME280;75011;50.086;19.886;2023-12-20T13:09:23;98090.78;;;18.90;35.52
84781;BME280;75011;50.086;19.886;2023-12-20T13:12:24;98109.69;;;18.87;36.02
84781;BME280;75011;50.086;19.886;2023-12-20T13:15:25;98109.38;;;18.88;35.89
84781;BME280;75011;50.086;19.886;2023-12-20T13:18:25;98103.25;;;18.91;36.33
84781;BME280;75011;50.086;19.886;2023-12-20T13:21:25;98100.84;;;18.90;36.44
84781;BME280;75011;50.086;19.886;2023-12-20T13:24:27;98110.28;;;18.92;36.43
84781;BME280;75011;50.086;19.886;2023-12-20T13:27:28;98117.34;;;18.93;36.25
84781;BME280;75011;50.086;19.886;2023-12-20T13:30:29;98118.94;;;18.94;36.10
84781;BME280;75011;50.086;19.886;2023-12-20T13:33:29;98116.38;;;18.98;36.04
84781;BME280;75011;50.086;19.886;2023-12-20T13:36:30;98112.84;;;18.97;36.03
84781;BME280;75011;50.086;19.886;2023-12-20T13:39:31;98113.94;;;18.96;36.37
84781;BME280;75011;50.086;19.886;2023-12-20T13:42:32;98112.38;;;18.95;36.20
84781;BME280;75011;50.086;19.886;2023-12-20T13:45:32;98128.38;;;18.97;36.30
84781;BME280;75011;50.086;19.886;2023-12-20T13:48:33;98113.94;;;18.96;35.73
84781;BME280;75011;50.086;19.886;2023-12-20T13:51:33;98115.22;;;18.99;36.22
84781;BME280;75011;50.086;19.886;2023-12-20T13:54:36;98118.09;;;19.02;35.43
84781;BME280;75011;50.086;19.886;2023-12-20T13:57:36;98115.03;;;19.04;35.97
84781;BME280;75011;50.086;19.886;2023-12-20T14:00:37;98128.19;;;19.02;35.38
84781;BME280;75011;50.086;19.886;2023-12-20T14:03:37;98106.75;;;19.00;35.38
84781;BME280;75011;50.086;19.886;2023-12-20T14:06:38;98107.84;;;18.99;35.97
84781;BME280;75011;50.086;19.886;2023-12-20T14:09:40;98094.25;;;18.99;36.05
84781;BME280;75011;50.086;19.886;2023-12-20T14:12:40;98103.69;;;19.02;36.05
84781;BME280;75011;50.086;19.886;2023-12-20T14:15:41;98110.72;;;19.03;35.54
84781;BME280;75011;50.086;19.886;2023-12-20T14:18:42;98102.09;;;19.01;35.80
84781;BME280;75011;50.086;19.886;2023-12-20T14:21:42;98092.94;;;19.05;36.10
84781;BME280;75011;50.086;19.886;2023-12-20T14:24:44;98095.00;;;19.08;36.00
84781;BME280;75011;50.086;19.886;2023-12-20T14:27:45;98095.00;;;19.08;36.06
84781;BME280;75011;50.086;19.886;2023-12-20T14:30:45;98100.44;;;19.08;35.68
84781;BME280;75011;50.086;19.886;2023-12-20T14:33:46;98108.28;;;19.10;35.80
84781;BME280;75011;50.086;19.886;2023-12-20T14:36:46;98104.75;;;19.09;36.04
84781;BME280;75011;50.086;19.886;2023-12-20T14:39:48;98102.84;;;19.10;36.18
84781;BME280;75011;50.086;19.886;2023-12-20T14:42:49;98094.81;;;19.13;35.67
84781;BME280;75011;50.086;19.886;2023-12-20T14:45:49;98098.81;;;19.16;35.58
84781;BME280;75011;50.086;19.886;2023-12-20T14:48:50;98107.28;;;19.14;35.44
84781;BME280;75011;50.086;19.886;2023-12-20T14:51:50;98100.72;;;19.15;36.03
84781;BME280;75011;50.086;19.886;2023-12-20T14:54:53;98110.81;;;19.15;35.80
84781;BME280;75011;50.086;19.886;2023-12-20T14:57:53;98111.16;;;19.13;35.53
84781;BME280;75011;50.086;19.886;2023-12-20T15:00:53;98105.56;;;19.10;35.70
84781;BME280;75011;50.086;19.886;2023-12-20T15:03:54;98108.94;;;19.07;35.46
84781;BME280;75011;50.086;19.886;2023-12-20T15:06:55;98138.91;;;19.07;35.97
84781;BME280;75011;50.086;19.886;2023-12-20T15:09:57;98125.16;;;19.03;35.72
84781;BME280;75011;50.086;19.886;2023-12-20T15:12:57;98112.50;;;18.99;35.61
84781;BME280;75011;50.086;19.886;2023-12-20T15:15:57;98131.25;;;19.00;35.81
84781;BME280;75011;50.086;19.886;2023-12-20T15:18:58;98137.81;;;18.99;35.42
84781;BME280;75011;50.086;19.886;2023-12-20T15:21:58;98122.91;;;18.97;35.44
84781;BME280;75011;50.086;19.886;2023-12-20T15:25:01;98128.72;;;18.95;35.61
84781;BME280;75011;50.086;19.886;2023-12-20T15:28:01;98136.53;;;18.97;36.10
84781;BME280;75011;50.086;19.886;2023-12-20T15:31:02;98132.53;;;19.03;35.63
84781;BME280;75011;50.086;19.886;2023-12-20T15:34:02;98125.09;;;19.12;35.08
84781;BME280;75011;50.086;19.886;2023-12-20T15:37:03;98126.97;;;19.20;35.30
84781;BME280;75011;50.086;19.886;2023-12-20T15:40:07;98139.28;;;19.26;35.03
84781;BME280;75011;50.086;19.886;2023-12-20T15:43:08;98127.06;;;19.32;34.20
84781;BME280;75011;50.086;19.886;2023-12-20T15:46:09;98120.34;;;19.38;34.31
84781;BME280;75011;50.086;19.886;2023-12-20T15:49:10;98113.41;;;19.40;34.18
84781;BME280;75011;50.086;19.886;2023-12-20T15:52:10;98126.38;;;19.43;34.24
84781;BME280;75011;50.086;19.886;2023-12-20T15:55:12;98124.13;;;19.45;33.98
84781;BME280;75011;50.086;19.886;2023-12-20T15:58:12;98121.88;;;19.48;33.95
84781;BME280;75011;50.086;19.886;2023-12-20T16:01:13;98121.22;;;19.51;33.53
84781;BME280;75011;50.086;19.886;2023-12-20T16:04:13;98119.28;;;19.51;33.48
84781;BME280;75011;50.086;19.886;2023-12-20T16:07:14;98126.00;;;19.54;33.68
84781;BME280;75011;50.086;19.886;2023-12-20T16:10:15;98119.44;;;19.55;33.57
84781;BME280;75011;50.086;19.886;2023-12-20T16:13:16;98127.59;;;19.55;33.35
84781;BME280;75011;50.086;19.886;2023-12-20T16:16:17;98131.91;;;19.56;33.52
84781;BME280;75011;50.086;19.886;2023-12-20T16:19:17;98132.72;;;19.56;33.07
84781;BME280;75011;50.086;19.886;2023-12-20T16:22:17;98132.72;;;19.56;33.38
84781;BME280;75011;50.086;19.886;2023-12-20T16:25:19;98128.88;;;19.57;33.19
84781;BME280;75011;50.086;19.886;2023-12-20T16:28:20;98132.38;;;19.58;33.19
84781;BME280;75011;50.086;19.886;2023-12-20T16:31:20;98125.00;;;19.58;32.66
84781;BME280;75011;50.086;19.886;2023-12-20T16:34:21;98125.81;;;19.59;32.67
84781;BME280;75011;50.086;19.886;2023-12-20T16:37:22;98123.06;;;19.59;32.62
84781;BME280;75011;50.086;19.886;2023-12-20T16:40:24;98116.03;;;19.58;32.91
84781;BME280;75011;50.086;19.886;2023-12-20T16:43:25;98116.03;;;19.58;32.66
84781;BME280;75011;50.086;19.886;2023-12-20T16:46:25;98123.06;;;19.59;32.42
84781;BME280;75011;50.086;19.886;2023-12-20T16:49:25;98118.44;;;19.59;32.15
84781;BME280;75011;50.086;19.886;2023-12-20T16:52:26;98112.97;;;19.59;32.11
84781;BME280;75011;50.086;19.886;2023-12-20T16:55:28;98116.81;;;19.58;32.63
84781;BME280;75011;50.086;19.886;2023-12-20T16:58:28;98119.22;;;19.60;31.85
84781;BME280;75011;50.086;19.886;2023-12-20T17:01:29;98118.09;;;19.61;32.20
84781;BME280;75011;50.086;19.886;2023-12-20T17:04:29;98120.50;;;19.62;32.33